Lebanon, Maine
Current Conditions -  °F | °C
As of 12:35 AM on Thursday 23 Oct 2014 (Local Time) from KSFM Reporting Station
Overcast Overcast  
Wind Chill: 38°   Ceiling: 1000
Heat Index: 46°   Visibility: 10mi
Dew Point: 39°   Wind: 26mph
Humidity: 76%   Direction: 20°NNE
Pressure: 29.91"   Gusts: 35mph
Location:  43.39°N, 70.85°W
Report Text: KSFM 230435Z AUTO 02023G30KT 10SM BKN010 OVC015 08/04 A2991 RMK AO1 P0005
Loading
Personal Weather Stations






























Interactive Weather Map
Tropical Storm Tracking
New forecast layout! Learn more

10-Day Weather Forecast

Advertisements
Track Severe Weather on mobile